Briefing drone pour Faverges

Rechercher une autre localisation

Conditions de vol :


Nous sommes le : Dimanche 25 septembre 2022
Il est 23:50 UTC (01:50 LT)

Lever de soleil : 04:58 UTC (06:58 LT)
Coucher de soleil : 17:54 UTC (19:54 LT)

Météo

L'essentiel des conditions de vol

VIGILANCE MÉTÉO FRANCE - Haute-Savoie (74)
Vigilance Jaune : Orages
CARTE TEMSI
CARTES DES FRONTS
METAR de LFLP
LFLP 242330Z AUTO 35004KT 9999 -RA FEW058/// OVC072/// ///TCU 12/11 Q1014

Date d'émission: 24/09/2022
Heure d'émission: 23:30 UTC
Vent: 350° pour 4 KT (7 km/h)
Visibilité horizontale: > 10 km
Plafond :
- Peu de nuages à 5800ft (1768m)
- Couvert à 7200ft (2195m)
Température: 12 °C
Point de rosée: 11 °C
Humidité: 94%
Pression (QNH): 1014 hPa
Conditions: Faible pluie
TAF de LFLP
AMD LFLP 241903Z 2419/2515 CNL

Conditions prévues :

Heure d'émission : Bulletin éffectué le 24 à 19:00 UTC
Prévision : Valide du 24 a 19:00 UTC au 25 a 15:00 UTC
Nuages : à 0ft (0 m)
WEBCAM POUR FAVERGES

Réglementation

Voler en sécurité

CARTES AERONAUTIQUE 1/500.000
CARTE AZBA (Reseau basse altitude)
CARTES VAC (LFLP)
SUP AIP




Chargement des AIP...
NOTAM (FAVERGES + Terrain à proximité / FIR )




Chargement des NOTAMS...
CONTACT PREFECTURE 74


Avertissement : Les données mises à disposition sont indicatives. Oxygène Drone ne pourra être tenu responsable de dégâts causés aux biens et aux personnes.